Dayton, WA

11:38 AM PDT on October 31, 2014 (GMT -0700)
Tri-Cities | Change Station
CLOSE
Current Station
Airport
Location: Pasco,
Elevation: 407 ft
Nearby Weather Stations

Elev 407 ft 46.26 °N, 119.12 °W | Updated 45 minutes ago

Overcast
Overcast
53 °F
Feels Like 53 °F
N
0
Wind Variable Wind from North

Today
High -- | Low -- °F
--% Chance of Precip.
Yesterday
High -- | Low -- °F
Precip. -- in
7:31 AM 5:38 PM
First Quarter, 57% visible
Pressure 29.75 in
Visibility 8.0 miles
Clouds Overcast 8000 ft
Dew Point 52 °F
Humidity 96%
Rainfall 0.00 in
Snow Depth Not available.
UV 1 out of 12
Pollen 2.60 out of 12
Air Quality Not available.
Flu Activity Not available.
METAR KPSC 311753Z 00000KT 8SM OVC080 12/11 A2975 RMK AO2 SLP072 T01170111 10117 20094 53003

More Conditions Fewer Conditions

Pressure 29.75 in
Visibility 8.0 miles
Clouds Overcast 8000 ft
Dew Point 52 °F
Humidity 96%
Rainfall 0.00 in
Snow Depth Not available.
UV 1 out of 12
Pollen 2.60 out of 12
Air Quality Not available.
Flu Activity Not available.
METAR KPSC 311753Z 00000KT 8SM OVC080 12/11 A2975 RMK AO2 SLP072 T01170111 10117 20094 53003

More Conditions Fewer Conditions

10-Day Weather Forecast

Almanac

Astronomy

Oct. 31, 2014 Rise Set
Actual Time
Civil Twilight
Nautical Twilight
Astronomical Twilight
Moon
Length of Visible Light
Length of Day
Tomorrow will be .
, % of the Moon is Illuminated

Today's Extremes

State Highs State Lows

Community

WunderPhotos

Upload Photos

1,766,690 photos uploaded!

WunderBlogs® & News

Nearby

Air Quality

  Air Quality AQ Index Pollutant
Not available.

Snow Depth

Station Depth Elevation

Earthquake Activity

City Distance Mag. Time & Date
Minimum magnitude displayed is 2.5.

Coastal Water Temperatures

Place Temperature

Nearby Weather Stations